sensor_id;sensor_type;location;lat;lon;timestamp;P1;durP1;ratioP1;P2;durP2;ratioP2
22064;SDS011;11197;53.110;8.468;2024-03-06T00:01:05;16.17;;;9.77;;
22064;SDS011;11197;53.110;8.468;2024-03-06T00:03:32;14.65;;;9.70;;
22064;SDS011;11197;53.110;8.468;2024-03-06T00:05:58;17.60;;;9.52;;
22064;SDS011;11197;53.110;8.468;2024-03-06T00:08:23;14.10;;;9.38;;
22064;SDS011;11197;53.110;8.468;2024-03-06T00:10:49;17.88;;;9.55;;
22064;SDS011;11197;53.110;8.468;2024-03-06T00:13:15;17.33;;;9.27;;
22064;SDS011;11197;53.110;8.468;2024-03-06T00:15:40;15.80;;;9.32;;
22064;SDS011;11197;53.110;8.468;2024-03-06T00:18:06;16.27;;;9.10;;
22064;SDS011;11197;53.110;8.468;2024-03-06T00:20:32;17.92;;;10.07;;
22064;SDS011;11197;53.110;8.468;2024-03-06T00:22:57;16.00;;;9.55;;
22064;SDS011;11197;53.110;8.468;2024-03-06T00:25:24;17.48;;;9.60;;
22064;SDS011;11197;53.110;8.468;2024-03-06T00:27:50;16.73;;;9.05;;
22064;SDS011;11197;53.110;8.468;2024-03-06T00:30:16;17.45;;;9.43;;
22064;SDS011;11197;53.110;8.468;2024-03-06T00:32:42;18.10;;;9.70;;
22064;SDS011;11197;53.110;8.468;2024-03-06T00:35:07;15.82;;;9.13;;
22064;SDS011;11197;53.110;8.468;2024-03-06T00:37:33;16.38;;;9.68;;
22064;SDS011;11197;53.110;8.468;2024-03-06T00:39:59;16.75;;;9.52;;
22064;SDS011;11197;53.110;8.468;2024-03-06T00:42:25;15.00;;;9.45;;
22064;SDS011;11197;53.110;8.468;2024-03-06T00:44:50;17.52;;;9.82;;
22064;SDS011;11197;53.110;8.468;2024-03-06T00:47:16;15.98;;;10.15;;
22064;SDS011;11197;53.110;8.468;2024-03-06T00:49:42;16.35;;;9.00;;
22064;SDS011;11197;53.110;8.468;2024-03-06T00:52:08;16.10;;;9.55;;
22064;SDS011;11197;53.110;8.468;2024-03-06T00:54:34;15.40;;;8.88;;
22064;SDS011;11197;53.110;8.468;2024-03-06T00:57:00;15.05;;;9.25;;
22064;SDS011;11197;53.110;8.468;2024-03-06T00:59:27;15.18;;;10.18;;
22064;SDS011;11197;53.110;8.468;2024-03-06T01:01:53;15.50;;;9.73;;
22064;SDS011;11197;53.110;8.468;2024-03-06T01:04:21;15.38;;;9.18;;
22064;SDS011;11197;53.110;8.468;2024-03-06T01:06:47;16.75;;;10.68;;
22064;SDS011;11197;53.110;8.468;2024-03-06T01:09:13;17.77;;;9.90;;
22064;SDS011;11197;53.110;8.468;2024-03-06T01:11:39;16.73;;;9.88;;
22064;SDS011;11197;53.110;8.468;2024-03-06T01:14:05;16.60;;;10.00;;
22064;SDS011;11197;53.110;8.468;2024-03-06T01:16:30;16.63;;;9.90;;
22064;SDS011;11197;53.110;8.468;2024-03-06T01:18:56;17.13;;;9.57;;
22064;SDS011;11197;53.110;8.468;2024-03-06T01:21:22;18.05;;;10.38;;
22064;SDS011;11197;53.110;8.468;2024-03-06T01:23:48;19.38;;;10.57;;
22064;SDS011;11197;53.110;8.468;2024-03-06T01:26:13;17.88;;;10.23;;
22064;SDS011;11197;53.110;8.468;2024-03-06T01:28:39;16.42;;;9.93;;
22064;SDS011;11197;53.110;8.468;2024-03-06T01:31:05;17.25;;;9.73;;
22064;SDS011;11197;53.110;8.468;2024-03-06T01:33:31;15.18;;;9.50;;
22064;SDS011;11197;53.110;8.468;2024-03-06T01:35:57;15.13;;;9.32;;
22064;SDS011;11197;53.110;8.468;2024-03-06T01:38:23;16.30;;;9.77;;
22064;SDS011;11197;53.110;8.468;2024-03-06T01:40:48;17.27;;;10.45;;
22064;SDS011;11197;53.110;8.468;2024-03-06T01:43:21;16.17;;;10.30;;
22064;SDS011;11197;53.110;8.468;2024-03-06T01:45:48;18.13;;;9.48;;
22064;SDS011;11197;53.110;8.468;2024-03-06T01:48:17;16.63;;;10.43;;
22064;SDS011;11197;53.110;8.468;2024-03-06T01:50:54;19.17;;;10.10;;
22064;SDS011;11197;53.110;8.468;2024-03-06T01:53:22;14.73;;;9.55;;
22064;SDS011;11197;53.110;8.468;2024-03-06T01:55:49;16.67;;;10.30;;
22064;SDS011;11197;53.110;8.468;2024-03-06T01:58:16;17.95;;;10.45;;
22064;SDS011;11197;53.110;8.468;2024-03-06T02:00:42;16.10;;;10.52;;
22064;SDS011;11197;53.110;8.468;2024-03-06T02:03:08;17.67;;;10.15;;
22064;SDS011;11197;53.110;8.468;2024-03-06T02:05:36;18.80;;;10.88;;
22064;SDS011;11197;53.110;8.468;2024-03-06T02:08:02;16.83;;;10.13;;
22064;SDS011;11197;53.110;8.468;2024-03-06T02:10:29;16.35;;;10.32;;
22064;SDS011;11197;53.110;8.468;2024-03-06T02:12:55;16.77;;;9.88;;
22064;SDS011;11197;53.110;8.468;2024-03-06T02:15:22;17.90;;;10.20;;
22064;SDS011;11197;53.110;8.468;2024-03-06T02:17:48;17.33;;;10.63;;
22064;SDS011;11197;53.110;8.468;2024-03-06T02:20:14;17.40;;;9.85;;
22064;SDS011;11197;53.110;8.468;2024-03-06T02:22:41;15.75;;;10.40;;
22064;SDS011;11197;53.110;8.468;2024-03-06T02:25:07;16.15;;;10.38;;
22064;SDS011;11197;53.110;8.468;2024-03-06T02:27:33;17.42;;;10.65;;
22064;SDS011;11197;53.110;8.468;2024-03-06T02:29:59;16.02;;;9.85;;
22064;SDS011;11197;53.110;8.468;2024-03-06T02:32:24;19.08;;;10.88;;
22064;SDS011;11197;53.110;8.468;2024-03-06T02:34:50;17.77;;;10.65;;
22064;SDS011;11197;53.110;8.468;2024-03-06T02:37:16;16.92;;;10.27;;
22064;SDS011;11197;53.110;8.468;2024-03-06T02:39:42;17.58;;;10.15;;
22064;SDS011;11197;53.110;8.468;2024-03-06T02:42:09;16.15;;;10.32;;
22064;SDS011;11197;53.110;8.468;2024-03-06T02:44:34;17.33;;;10.52;;
22064;SDS011;11197;53.110;8.468;2024-03-06T02:47:00;18.00;;;10.30;;
22064;SDS011;11197;53.110;8.468;2024-03-06T02:49:26;18.75;;;11.15;;
22064;SDS011;11197;53.110;8.468;2024-03-06T02:51:51;17.63;;;10.70;;
22064;SDS011;11197;53.110;8.468;2024-03-06T02:54:17;19.15;;;11.05;;
22064;SDS011;11197;53.110;8.468;2024-03-06T02:56:43;20.38;;;10.95;;
22064;SDS011;11197;53.110;8.468;2024-03-06T02:59:09;17.17;;;10.80;;
22064;SDS011;11197;53.110;8.468;2024-03-06T03:01:34;16.25;;;10.02;;
22064;SDS011;11197;53.110;8.468;2024-03-06T03:04:00;16.50;;;10.15;;
22064;SDS011;11197;53.110;8.468;2024-03-06T03:06:26;17.58;;;10.88;;
22064;SDS011;11197;53.110;8.468;2024-03-06T03:08:52;17.10;;;10.68;;
22064;SDS011;11197;53.110;8.468;2024-03-06T03:11:18;19.08;;;10.90;;
22064;SDS011;11197;53.110;8.468;2024-03-06T03:13:43;18.63;;;10.82;;
22064;SDS011;11197;53.110;8.468;2024-03-06T03:16:16;17.25;;;10.10;;
22064;SDS011;11197;53.110;8.468;2024-03-06T03:18:43;18.60;;;11.02;;
22064;SDS011;11197;53.110;8.468;2024-03-06T03:21:09;19.15;;;10.65;;
22064;SDS011;11197;53.110;8.468;2024-03-06T03:23:37;18.30;;;10.73;;
22064;SDS011;11197;53.110;8.468;2024-03-06T03:26:04;18.45;;;11.25;;
22064;SDS011;11197;53.110;8.468;2024-03-06T03:28:30;18.20;;;11.32;;
22064;SDS011;11197;53.110;8.468;2024-03-06T03:30:57;19.98;;;11.07;;
22064;SDS011;11197;53.110;8.468;2024-03-06T03:33:23;19.05;;;11.48;;
22064;SDS011;11197;53.110;8.468;2024-03-06T03:35:49;18.10;;;10.65;;
22064;SDS011;11197;53.110;8.468;2024-03-06T03:38:15;19.98;;;11.27;;
22064;SDS011;11197;53.110;8.468;2024-03-06T03:40:41;18.90;;;11.30;;
22064;SDS011;11197;53.110;8.468;2024-03-06T03:43:08;22.67;;;11.43;;
22064;SDS011;11197;53.110;8.468;2024-03-06T03:45:34;17.48;;;10.77;;
22064;SDS011;11197;53.110;8.468;2024-03-06T03:48:01;19.17;;;11.73;;
22064;SDS011;11197;53.110;8.468;2024-03-06T03:50:30;21.30;;;10.95;;
22064;SDS011;11197;53.110;8.468;2024-03-06T03:52:57;17.38;;;10.85;;
22064;SDS011;11197;53.110;8.468;2024-03-06T03:55:26;17.33;;;10.63;;
22064;SDS011;11197;53.110;8.468;2024-03-06T03:57:52;18.80;;;10.88;;
22064;SDS011;11197;53.110;8.468;2024-03-06T04:00:18;23.27;;;11.15;;
22064;SDS011;11197;53.110;8.468;2024-03-06T04:02:44;18.42;;;11.15;;
22064;SDS011;11197;53.110;8.468;2024-03-06T04:05:10;18.65;;;10.80;;
22064;SDS011;11197;53.110;8.468;2024-03-06T04:07:36;19.15;;;11.23;;
22064;SDS011;11197;53.110;8.468;2024-03-06T04:10:02;20.10;;;11.40;;
22064;SDS011;11197;53.110;8.468;2024-03-06T04:12:29;17.67;;;11.52;;
22064;SDS011;11197;53.110;8.468;2024-03-06T04:14:55;19.50;;;11.20;;
22064;SDS011;11197;53.110;8.468;2024-03-06T04:17:22;18.75;;;9.90;;
22064;SDS011;11197;53.110;8.468;2024-03-06T04:19:47;17.92;;;11.00;;
22064;SDS011;11197;53.110;8.468;2024-03-06T04:22:14;20.67;;;11.07;;
22064;SDS011;11197;53.110;8.468;2024-03-06T04:24:43;20.63;;;12.50;;
22064;SDS011;11197;53.110;8.468;2024-03-06T04:27:08;18.10;;;11.00;;
22064;SDS011;11197;53.110;8.468;2024-03-06T04:29:34;17.33;;;10.80;;
22064;SDS011;11197;53.110;8.468;2024-03-06T04:32:00;16.75;;;10.68;;
22064;SDS011;11197;53.110;8.468;2024-03-06T04:34:26;18.10;;;10.18;;
22064;SDS011;11197;53.110;8.468;2024-03-06T04:36:52;17.20;;;10.52;;
22064;SDS011;11197;53.110;8.468;2024-03-06T04:39:18;19.10;;;10.82;;
22064;SDS011;11197;53.110;8.468;2024-03-06T04:41:43;16.23;;;10.18;;
22064;SDS011;11197;53.110;8.468;2024-03-06T04:44:09;17.23;;;10.38;;
22064;SDS011;11197;53.110;8.468;2024-03-06T04:46:35;16.92;;;10.32;;
22064;SDS011;11197;53.110;8.468;2024-03-06T04:49:01;20.02;;;11.70;;
22064;SDS011;11197;53.110;8.468;2024-03-06T04:51:27;17.55;;;10.98;;
22064;SDS011;11197;53.110;8.468;2024-03-06T04:53:52;17.90;;;11.40;;
22064;SDS011;11197;53.110;8.468;2024-03-06T04:56:18;17.83;;;10.80;;
22064;SDS011;11197;53.110;8.468;2024-03-06T04:58:46;17.17;;;10.85;;
22064;SDS011;11197;53.110;8.468;2024-03-06T05:01:11;19.67;;;11.00;;
22064;SDS011;11197;53.110;8.468;2024-03-06T05:03:38;19.75;;;11.65;;
22064;SDS011;11197;53.110;8.468;2024-03-06T05:06:06;19.25;;;11.55;;
22064;SDS011;11197;53.110;8.468;2024-03-06T05:08:32;20.13;;;11.73;;
22064;SDS011;11197;53.110;8.468;2024-03-06T05:10:59;18.35;;;11.75;;
22064;SDS011;11197;53.110;8.468;2024-03-06T05:13:26;21.30;;;12.35;;
22064;SDS011;11197;53.110;8.468;2024-03-06T05:15:52;17.52;;;10.75;;
22064;SDS011;11197;53.110;8.468;2024-03-06T05:18:19;19.85;;;11.38;;
22064;SDS011;11197;53.110;8.468;2024-03-06T05:20:45;17.77;;;10.95;;
22064;SDS011;11197;53.110;8.468;2024-03-06T05:23:11;18.60;;;11.20;;
22064;SDS011;11197;53.110;8.468;2024-03-06T05:25:38;18.67;;;11.43;;
22064;SDS011;11197;53.110;8.468;2024-03-06T05:28:04;19.55;;;10.80;;
22064;SDS011;11197;53.110;8.468;2024-03-06T05:30:30;18.52;;;11.25;;
22064;SDS011;11197;53.110;8.468;2024-03-06T05:32:56;17.92;;;11.77;;
22064;SDS011;11197;53.110;8.468;2024-03-06T05:35:22;18.60;;;10.90;;
22064;SDS011;11197;53.110;8.468;2024-03-06T05:37:48;19.27;;;11.05;;
22064;SDS011;11197;53.110;8.468;2024-03-06T05:40:13;20.35;;;12.40;;
22064;SDS011;11197;53.110;8.468;2024-03-06T05:42:39;18.35;;;11.77;;
22064;SDS011;11197;53.110;8.468;2024-03-06T05:45:05;19.67;;;11.93;;
22064;SDS011;11197;53.110;8.468;2024-03-06T05:47:36;15.43;;;9.05;;
22064;SDS011;11197;53.110;8.468;2024-03-06T05:50:03;19.45;;;11.95;;
22064;SDS011;11197;53.110;8.468;2024-03-06T05:52:32;19.98;;;12.05;;
22064;SDS011;11197;53.110;8.468;2024-03-06T05:54:59;20.45;;;12.00;;
22064;SDS011;11197;53.110;8.468;2024-03-06T05:57:25;19.17;;;11.40;;
22064;SDS011;11197;53.110;8.468;2024-03-06T05:59:51;19.63;;;11.10;;
22064;SDS011;11197;53.110;8.468;2024-03-06T06:02:17;20.13;;;11.60;;
22064;SDS011;11197;53.110;8.468;2024-03-06T06:04:44;20.50;;;11.55;;
22064;SDS011;11197;53.110;8.468;2024-03-06T06:07:10;18.10;;;11.43;;
22064;SDS011;11197;53.110;8.468;2024-03-06T06:09:36;19.48;;;11.43;;
22064;SDS011;11197;53.110;8.468;2024-03-06T06:12:02;21.85;;;11.25;;
22064;SDS011;11197;53.110;8.468;2024-03-06T06:14:28;21.70;;;11.75;;
22064;SDS011;11197;53.110;8.468;2024-03-06T06:16:54;19.77;;;10.93;;
22064;SDS011;11197;53.110;8.468;2024-03-06T06:19:23;21.67;;;11.80;;
22064;SDS011;11197;53.110;8.468;2024-03-06T06:21:51;19.23;;;11.32;;
22064;SDS011;11197;53.110;8.468;2024-03-06T06:24:19;19.50;;;11.20;;
22064;SDS011;11197;53.110;8.468;2024-03-06T06:26:44;21.20;;;12.13;;
22064;SDS011;11197;53.110;8.468;2024-03-06T06:29:10;21.58;;;11.98;;
22064;SDS011;11197;53.110;8.468;2024-03-06T06:31:36;19.67;;;11.15;;
22064;SDS011;11197;53.110;8.468;2024-03-06T06:34:01;20.10;;;12.07;;
22064;SDS011;11197;53.110;8.468;2024-03-06T06:36:27;20.88;;;13.30;;
22064;SDS011;11197;53.110;8.468;2024-03-06T06:38:53;20.00;;;12.27;;
22064;SDS011;11197;53.110;8.468;2024-03-06T06:41:19;21.77;;;12.85;;
22064;SDS011;11197;53.110;8.468;2024-03-06T06:43:45;25.35;;;13.40;;
22064;SDS011;11197;53.110;8.468;2024-03-06T06:46:11;21.08;;;13.05;;
22064;SDS011;11197;53.110;8.468;2024-03-06T06:48:36;24.00;;;12.75;;
22064;SDS011;11197;53.110;8.468;2024-03-06T06:51:02;23.40;;;13.73;;
22064;SDS011;11197;53.110;8.468;2024-03-06T06:53:31;22.00;;;13.20;;
22064;SDS011;11197;53.110;8.468;2024-03-06T06:55:57;23.98;;;13.15;;
22064;SDS011;11197;53.110;8.468;2024-03-06T06:58:23;22.08;;;13.50;;
22064;SDS011;11197;53.110;8.468;2024-03-06T07:00:49;19.85;;;12.77;;
22064;SDS011;11197;53.110;8.468;2024-03-06T07:03:15;20.83;;;12.40;;
22064;SDS011;11197;53.110;8.468;2024-03-06T07:05:41;20.42;;;12.82;;
22064;SDS011;11197;53.110;8.468;2024-03-06T07:08:07;21.45;;;12.18;;
22064;SDS011;11197;53.110;8.468;2024-03-06T07:10:33;21.35;;;12.30;;
22064;SDS011;11197;53.110;8.468;2024-03-06T07:13:01;19.33;;;11.85;;
22064;SDS011;11197;53.110;8.468;2024-03-06T07:15:31;21.80;;;13.15;;
22064;SDS011;11197;53.110;8.468;2024-03-06T07:17:57;21.50;;;12.55;;
22064;SDS011;11197;53.110;8.468;2024-03-06T07:20:23;19.85;;;12.45;;
22064;SDS011;11197;53.110;8.468;2024-03-06T07:22:48;21.33;;;12.40;;
22064;SDS011;11197;53.110;8.468;2024-03-06T07:25:15;18.83;;;11.65;;
22064;SDS011;11197;53.110;8.468;2024-03-06T07:27:41;21.92;;;12.15;;
22064;SDS011;11197;53.110;8.468;2024-03-06T07:30:07;20.42;;;12.48;;
22064;SDS011;11197;53.110;8.468;2024-03-06T07:32:33;18.20;;;11.65;;
22064;SDS011;11197;53.110;8.468;2024-03-06T07:35:00;24.42;;;13.02;;
22064;SDS011;11197;53.110;8.468;2024-03-06T07:37:26;19.63;;;11.95;;
22064;SDS011;11197;53.110;8.468;2024-03-06T07:39:52;21.60;;;12.55;;
22064;SDS011;11197;53.110;8.468;2024-03-06T07:42:17;21.40;;;11.77;;
22064;SDS011;11197;53.110;8.468;2024-03-06T07:44:43;20.33;;;12.23;;
22064;SDS011;11197;53.110;8.468;2024-03-06T07:47:09;19.40;;;12.23;;
22064;SDS011;11197;53.110;8.468;2024-03-06T07:49:35;22.55;;;12.15;;
22064;SDS011;11197;53.110;8.468;2024-03-06T07:52:00;21.13;;;12.50;;
22064;SDS011;11197;53.110;8.468;2024-03-06T07:54:26;22.05;;;12.82;;
22064;SDS011;11197;53.110;8.468;2024-03-06T07:56:52;19.25;;;11.48;;
22064;SDS011;11197;53.110;8.468;2024-03-06T07:59:19;23.77;;;12.00;;
22064;SDS011;11197;53.110;8.468;2024-03-06T08:01:45;20.58;;;12.65;;
22064;SDS011;11197;53.110;8.468;2024-03-06T08:04:10;21.33;;;12.18;;
22064;SDS011;11197;53.110;8.468;2024-03-06T08:06:36;21.65;;;12.55;;
22064;SDS011;11197;53.110;8.468;2024-03-06T08:09:02;21.52;;;12.10;;
22064;SDS011;11197;53.110;8.468;2024-03-06T08:11:28;19.95;;;11.75;;
22064;SDS011;11197;53.110;8.468;2024-03-06T08:13:58;18.77;;;11.25;;
22064;SDS011;11197;53.110;8.468;2024-03-06T08:16:24;21.10;;;11.88;;
22064;SDS011;11197;53.110;8.468;2024-03-06T08:18:50;21.70;;;12.02;;
22064;SDS011;11197;53.110;8.468;2024-03-06T08:21:15;20.00;;;12.20;;
22064;SDS011;11197;53.110;8.468;2024-03-06T08:23:41;20.10;;;11.82;;
22064;SDS011;11197;53.110;8.468;2024-03-06T08:26:08;19.52;;;12.02;;
22064;SDS011;11197;53.110;8.468;2024-03-06T08:28:34;21.52;;;12.05;;
22064;SDS011;11197;53.110;8.468;2024-03-06T08:31:01;21.35;;;12.05;;
22064;SDS011;11197;53.110;8.468;2024-03-06T08:33:40;20.52;;;11.63;;
22064;SDS011;11197;53.110;8.468;2024-03-06T08:36:20;21.05;;;12.23;;
22064;SDS011;11197;53.110;8.468;2024-03-06T08:38:46;19.77;;;12.38;;
22064;SDS011;11197;53.110;8.468;2024-03-06T08:41:12;20.20;;;12.43;;
22064;SDS011;11197;53.110;8.468;2024-03-06T08:43:37;21.50;;;12.85;;
22064;SDS011;11197;53.110;8.468;2024-03-06T08:46:03;26.30;;;12.57;;
22064;SDS011;11197;53.110;8.468;2024-03-06T08:48:29;19.63;;;11.43;;
22064;SDS011;11197;53.110;8.468;2024-03-06T08:50:55;23.15;;;12.93;;
22064;SDS011;11197;53.110;8.468;2024-03-06T08:53:21;19.98;;;12.77;;
22064;SDS011;11197;53.110;8.468;2024-03-06T08:55:47;21.10;;;11.80;;
22064;SDS011;11197;53.110;8.468;2024-03-06T08:58:12;20.13;;;12.25;;
22064;SDS011;11197;53.110;8.468;2024-03-06T09:00:39;20.88;;;12.05;;
22064;SDS011;11197;53.110;8.468;2024-03-06T09:03:05;20.10;;;12.15;;
22064;SDS011;11197;53.110;8.468;2024-03-06T09:05:30;18.75;;;11.25;;
22064;SDS011;11197;53.110;8.468;2024-03-06T09:07:56;18.70;;;11.82;;
22064;SDS011;11197;53.110;8.468;2024-03-06T09:10:22;20.02;;;11.95;;
22064;SDS011;11197;53.110;8.468;2024-03-06T09:12:48;19.83;;;12.10;;
22064;SDS011;11197;53.110;8.468;2024-03-06T09:15:14;20.92;;;12.18;;
22064;SDS011;11197;53.110;8.468;2024-03-06T09:17:41;18.48;;;12.05;;
22064;SDS011;11197;53.110;8.468;2024-03-06T09:20:07;22.05;;;12.75;;
22064;SDS011;11197;53.110;8.468;2024-03-06T09:22:40;18.83;;;11.95;;
22064;SDS011;11197;53.110;8.468;2024-03-06T09:25:06;23.10;;;12.32;;
22064;SDS011;11197;53.110;8.468;2024-03-06T09:27:33;23.50;;;13.13;;
22064;SDS011;11197;53.110;8.468;2024-03-06T09:29:58;19.92;;;12.77;;
22064;SDS011;11197;53.110;8.468;2024-03-06T09:32:24;20.38;;;12.43;;
22064;SDS011;11197;53.110;8.468;2024-03-06T09:34:51;19.45;;;12.18;;
22064;SDS011;11197;53.110;8.468;2024-03-06T09:37:18;20.13;;;12.77;;
22064;SDS011;11197;53.110;8.468;2024-03-06T09:39:44;22.88;;;13.15;;
22064;SDS011;11197;53.110;8.468;2024-03-06T09:42:12;19.17;;;12.35;;
22064;SDS011;11197;53.110;8.468;2024-03-06T09:44:40;23.02;;;12.43;;
22064;SDS011;11197;53.110;8.468;2024-03-06T09:47:05;20.83;;;12.50;;
22064;SDS011;11197;53.110;8.468;2024-03-06T09:49:32;19.50;;;12.32;;
22064;SDS011;11197;53.110;8.468;2024-03-06T09:51:59;19.35;;;12.77;;
22064;SDS011;11197;53.110;8.468;2024-03-06T09:54:27;19.92;;;12.10;;
22064;SDS011;11197;53.110;8.468;2024-03-06T09:56:54;23.45;;;13.48;;
22064;SDS011;11197;53.110;8.468;2024-03-06T09:59:22;28.38;;;15.25;;
22064;SDS011;11197;53.110;8.468;2024-03-06T10:01:50;26.17;;;13.93;;
22064;SDS011;11197;53.110;8.468;2024-03-06T10:04:25;24.25;;;13.57;;
22064;SDS011;11197;53.110;8.468;2024-03-06T10:06:58;21.50;;;13.18;;
22064;SDS011;11197;53.110;8.468;2024-03-06T10:09:25;19.85;;;12.32;;
22064;SDS011;11197;53.110;8.468;2024-03-06T10:11:51;23.88;;;12.98;;
22064;SDS011;11197;53.110;8.468;2024-03-06T10:14:19;20.27;;;13.18;;
22064;SDS011;11197;53.110;8.468;2024-03-06T10:19:26;20.45;;;12.82;;
22064;SDS011;11197;53.110;8.468;2024-03-06T10:21:53;18.98;;;12.18;;
22064;SDS011;11197;53.110;8.468;2024-03-06T10:26:48;20.08;;;13.55;;
22064;SDS011;11197;53.110;8.468;2024-03-06T10:29:15;24.27;;;13.30;;
22064;SDS011;11197;53.110;8.468;2024-03-06T10:31:52;21.05;;;12.70;;
22064;SDS011;11197;53.110;8.468;2024-03-06T10:34:23;22.80;;;13.27;;
22064;SDS011;11197;53.110;8.468;2024-03-06T10:37:01;21.67;;;13.13;;
22064;SDS011;11197;53.110;8.468;2024-03-06T10:39:32;20.90;;;13.27;;
22064;SDS011;11197;53.110;8.468;2024-03-06T10:42:03;23.05;;;13.60;;
22064;SDS011;11197;53.110;8.468;2024-03-06T10:44:33;23.57;;;13.57;;
22064;SDS011;11197;53.110;8.468;2024-03-06T10:47:02;21.13;;;13.93;;
22064;SDS011;11197;53.110;8.468;2024-03-06T10:49:30;22.20;;;13.55;;
22064;SDS011;11197;53.110;8.468;2024-03-06T10:52:01;22.58;;;13.98;;
22064;SDS011;11197;53.110;8.468;2024-03-06T10:54:32;24.83;;;14.35;;
22064;SDS011;11197;53.110;8.468;2024-03-06T10:57:00;25.77;;;14.18;;
22064;SDS011;11197;53.110;8.468;2024-03-06T10:59:27;21.77;;;14.25;;
22064;SDS011;11197;53.110;8.468;2024-03-06T11:02:02;21.20;;;14.32;;
22064;SDS011;11197;53.110;8.468;2024-03-06T11:04:29;20.67;;;14.18;;
22064;SDS011;11197;53.110;8.468;2024-03-06T11:06:59;23.08;;;13.70;;
22064;SDS011;11197;53.110;8.468;2024-03-06T11:09:26;23.05;;;14.90;;
22064;SDS011;11197;53.110;8.468;2024-03-06T11:11:52;24.73;;;14.80;;
22064;SDS011;11197;53.110;8.468;2024-03-06T11:14:22;23.23;;;14.55;;
22064;SDS011;11197;53.110;8.468;2024-03-06T11:17:05;20.63;;;13.45;;
22064;SDS011;11197;53.110;8.468;2024-03-06T11:20:18;22.50;;;14.48;;
22064;SDS011;11197;53.110;8.468;2024-03-06T11:28:21;17.13;;;10.93;;
22064;SDS011;11197;53.110;8.468;2024-03-06T11:30:58;20.10;;;13.27;;
22064;SDS011;11197;53.110;8.468;2024-03-06T11:36:23;23.30;;;14.43;;
22064;SDS011;11197;53.110;8.468;2024-03-06T11:38:56;24.13;;;14.45;;
22064;SDS011;11197;53.110;8.468;2024-03-06T11:41:22;26.25;;;15.05;;
22064;SDS011;11197;53.110;8.468;2024-03-06T11:43:49;24.42;;;14.75;;
22064;SDS011;11197;53.110;8.468;2024-03-06T11:46:18;23.80;;;15.05;;
22064;SDS011;11197;53.110;8.468;2024-03-06T11:48:51;24.40;;;15.25;;
22064;SDS011;11197;53.110;8.468;2024-03-06T11:51:18;25.15;;;14.73;;
22064;SDS011;11197;53.110;8.468;2024-03-06T11:53:44;25.65;;;15.55;;
22064;SDS011;11197;53.110;8.468;2024-03-06T11:56:10;23.58;;;14.95;;
22064;SDS011;11197;53.110;8.468;2024-03-06T11:58:36;24.45;;;15.52;;
22064;SDS011;11197;53.110;8.468;2024-03-06T12:01:03;26.55;;;16.23;;
22064;SDS011;11197;53.110;8.468;2024-03-06T12:03:29;28.33;;;15.75;;
22064;SDS011;11197;53.110;8.468;2024-03-06T12:05:55;23.20;;;15.85;;
22064;SDS011;11197;53.110;8.468;2024-03-06T12:08:21;22.02;;;15.00;;
22064;SDS011;11197;53.110;8.468;2024-03-06T12:10:47;24.13;;;15.68;;
22064;SDS011;11197;53.110;8.468;2024-03-06T12:13:13;27.67;;;16.27;;
22064;SDS011;11197;53.110;8.468;2024-03-06T12:15:42;27.70;;;15.95;;
22064;SDS011;11197;53.110;8.468;2024-03-06T12:18:09;27.10;;;16.83;;
22064;SDS011;11197;53.110;8.468;2024-03-06T12:20:35;25.77;;;15.65;;
22064;SDS011;11197;53.110;8.468;2024-03-06T12:23:01;27.00;;;16.35;;
22064;SDS011;11197;53.110;8.468;2024-03-06T12:25:27;23.67;;;15.30;;
22064;SDS011;11197;53.110;8.468;2024-03-06T12:28:05;27.58;;;17.08;;
22064;SDS011;11197;53.110;8.468;2024-03-06T12:30:40;24.13;;;15.25;;
22064;SDS011;11197;53.110;8.468;2024-03-06T12:33:08;26.85;;;15.95;;
22064;SDS011;11197;53.110;8.468;2024-03-06T12:35:34;29.20;;;16.08;;
22064;SDS011;11197;53.110;8.468;2024-03-06T12:38:12;25.17;;;15.40;;
22064;SDS011;11197;53.110;8.468;2024-03-06T12:40:39;27.73;;;16.95;;
22064;SDS011;11197;53.110;8.468;2024-03-06T12:43:06;27.42;;;16.52;;
22064;SDS011;11197;53.110;8.468;2024-03-06T12:45:32;26.58;;;17.10;;
22064;SDS011;11197;53.110;8.468;2024-03-06T12:47:59;30.35;;;16.80;;
22064;SDS011;11197;53.110;8.468;2024-03-06T12:50:25;32.42;;;17.30;;
22064;SDS011;11197;53.110;8.468;2024-03-06T12:52:51;24.98;;;15.93;;
22064;SDS011;11197;53.110;8.468;2024-03-06T12:55:17;24.55;;;16.30;;
22064;SDS011;11197;53.110;8.468;2024-03-06T12:57:44;23.70;;;16.45;;
22064;SDS011;11197;53.110;8.468;2024-03-06T13:00:11;26.63;;;17.10;;
22064;SDS011;11197;53.110;8.468;2024-03-06T13:02:44;28.17;;;17.63;;
22064;SDS011;11197;53.110;8.468;2024-03-06T13:05:10;27.17;;;17.38;;
22064;SDS011;11197;53.110;8.468;2024-03-06T13:07:36;28.33;;;16.88;;
22064;SDS011;11197;53.110;8.468;2024-03-06T13:10:03;25.33;;;16.10;;
22064;SDS011;11197;53.110;8.468;2024-03-06T13:12:29;26.63;;;16.48;;
22064;SDS011;11197;53.110;8.468;2024-03-06T13:14:54;27.50;;;17.20;;
22064;SDS011;11197;53.110;8.468;2024-03-06T13:17:21;26.02;;;17.10;;
22064;SDS011;11197;53.110;8.468;2024-03-06T13:19:47;26.55;;;17.23;;
22064;SDS011;11197;53.110;8.468;2024-03-06T13:22:12;27.08;;;17.42;;
22064;SDS011;11197;53.110;8.468;2024-03-06T13:24:38;27.40;;;17.00;;
22064;SDS011;11197;53.110;8.468;2024-03-06T13:27:04;27.33;;;16.58;;
22064;SDS011;11197;53.110;8.468;2024-03-06T13:29:30;29.25;;;17.30;;
22064;SDS011;11197;53.110;8.468;2024-03-06T13:31:55;28.40;;;17.80;;
22064;SDS011;11197;53.110;8.468;2024-03-06T13:34:21;26.75;;;16.35;;
22064;SDS011;11197;53.110;8.468;2024-03-06T13:36:47;29.15;;;17.27;;
22064;SDS011;11197;53.110;8.468;2024-03-06T13:39:13;28.70;;;17.15;;
22064;SDS011;11197;53.110;8.468;2024-03-06T13:41:39;27.35;;;17.00;;
22064;SDS011;11197;53.110;8.468;2024-03-06T13:44:05;27.90;;;16.85;;
22064;SDS011;11197;53.110;8.468;2024-03-06T13:46:33;27.08;;;16.58;;
22064;SDS011;11197;53.110;8.468;2024-03-06T13:48:59;25.30;;;16.38;;
22064;SDS011;11197;53.110;8.468;2024-03-06T13:51:25;25.83;;;16.00;;
22064;SDS011;11197;53.110;8.468;2024-03-06T13:53:51;30.13;;;17.50;;
22064;SDS011;11197;53.110;8.468;2024-03-06T13:56:17;27.77;;;16.50;;
22064;SDS011;11197;53.110;8.468;2024-03-06T13:58:43;25.88;;;16.15;;
22064;SDS011;11197;53.110;8.468;2024-03-06T14:01:09;25.10;;;16.38;;
22064;SDS011;11197;53.110;8.468;2024-03-06T14:03:35;25.52;;;16.38;;
22064;SDS011;11197;53.110;8.468;2024-03-06T14:06:03;26.02;;;16.25;;
22064;SDS011;11197;53.110;8.468;2024-03-06T14:08:29;23.77;;;15.50;;
22064;SDS011;11197;53.110;8.468;2024-03-06T14:10:55;28.23;;;16.92;;
22064;SDS011;11197;53.110;8.468;2024-03-06T14:13:20;24.98;;;15.68;;
22064;SDS011;11197;53.110;8.468;2024-03-06T14:15:46;27.83;;;15.95;;
22064;SDS011;11197;53.110;8.468;2024-03-06T14:18:14;27.20;;;15.70;;
22064;SDS011;11197;53.110;8.468;2024-03-06T14:20:40;26.83;;;16.25;;
22064;SDS011;11197;53.110;8.468;2024-03-06T14:23:06;27.70;;;16.80;;
22064;SDS011;11197;53.110;8.468;2024-03-06T14:25:32;28.77;;;16.65;;
22064;SDS011;11197;53.110;8.468;2024-03-06T14:28:03;24.95;;;14.73;;
22064;SDS011;11197;53.110;8.468;2024-03-06T14:30:29;29.38;;;16.38;;
22064;SDS011;11197;53.110;8.468;2024-03-06T14:32:55;28.00;;;16.13;;
22064;SDS011;11197;53.110;8.468;2024-03-06T14:35:20;28.20;;;16.45;;